sensor_id;sensor_type;location;lat;lon;timestamp;pressure;altitude;pressure_sealevel;temperature;humidity
5455;BME280;2750;49.050;9.250;2023-04-09T00:03:17;99510.06;;;9.15;84.59
5455;BME280;2750;49.050;9.250;2023-04-09T00:08:19;99509.47;;;9.63;83.71
5455;BME280;2750;49.050;9.250;2023-04-09T00:13:23;99512.63;;;9.72;83.70
5455;BME280;2750;49.050;9.250;2023-04-09T00:18:24;99501.50;;;9.96;82.69
5455;BME280;2750;49.050;9.250;2023-04-09T00:23:27;99501.13;;;9.81;82.20
5455;BME280;2750;49.050;9.250;2023-04-09T00:28:29;99505.34;;;9.57;83.00
5455;BME280;2750;49.050;9.250;2023-04-09T00:33:30;99498.97;;;9.67;82.81
5455;BME280;2750;49.050;9.250;2023-04-09T00:38:33;99499.38;;;9.81;83.30
5455;BME280;2750;49.050;9.250;2023-04-09T00:43:35;99486.22;;;9.87;82.69
5455;BME280;2750;49.050;9.250;2023-04-09T00:48:36;99490.41;;;9.65;84.16
5455;BME280;2750;49.050;9.250;2023-04-09T00:53:40;99488.69;;;9.64;83.53
5455;BME280;2750;49.050;9.250;2023-04-09T00:58:43;99493.19;;;9.85;82.63
5455;BME280;2750;49.050;9.250;2023-04-09T01:03:44;99481.56;;;9.97;82.70
5455;BME280;2750;49.050;9.250;2023-04-09T01:08:50;99487.81;;;9.91;82.97
5455;BME280;2750;49.050;9.250;2023-04-09T01:14:00;99498.91;;;9.96;83.12
5455;BME280;2750;49.050;9.250;2023-04-09T01:19:09;99491.06;;;9.98;82.91
5455;BME280;2750;49.050;9.250;2023-04-09T01:24:21;99486.75;;;9.97;82.57
5455;BME280;2750;49.050;9.250;2023-04-09T01:29:30;99479.84;;;9.97;82.15
5455;BME280;2750;49.050;9.250;2023-04-09T01:34:32;99477.56;;;9.88;82.48
5455;BME280;2750;49.050;9.250;2023-04-09T01:39:36;99489.28;;;10.00;81.97
5455;BME280;2750;49.050;9.250;2023-04-09T01:44:39;99480.84;;;9.93;81.78
5455;BME280;2750;49.050;9.250;2023-04-09T01:49:42;99490.19;;;9.97;82.45
5455;BME280;2750;49.050;9.250;2023-04-09T01:54:44;99487.88;;;9.62;82.86
5455;BME280;2750;49.050;9.250;2023-04-09T01:59:46;99491.91;;;9.72;82.64
5455;BME280;2750;49.050;9.250;2023-04-09T02:04:50;99487.47;;;10.02;82.06
5455;BME280;2750;49.050;9.250;2023-04-09T02:09:54;99487.44;;;10.03;81.59
5455;BME280;2750;49.050;9.250;2023-04-09T02:14:59;99486.94;;;9.92;82.36
5455;BME280;2750;49.050;9.250;2023-04-09T02:20:01;99484.13;;;9.98;82.28
5455;BME280;2750;49.050;9.250;2023-04-09T02:25:04;99480.25;;;10.12;81.31
5455;BME280;2750;49.050;9.250;2023-04-09T02:30:08;99487.31;;;10.06;81.42
5455;BME280;2750;49.050;9.250;2023-04-09T02:35:09;99483.28;;;9.72;83.02
5455;BME280;2750;49.050;9.250;2023-04-09T02:40:11;99480.84;;;9.93;82.79
5455;BME280;2750;49.050;9.250;2023-04-09T02:45:14;99482.31;;;10.00;82.50
5455;BME280;2750;49.050;9.250;2023-04-09T02:50:16;99481.03;;;10.15;82.04
5455;BME280;2750;49.050;9.250;2023-04-09T02:55:18;99479.28;;;10.16;81.91
5455;BME280;2750;49.050;9.250;2023-04-09T03:00:21;99480.31;;;10.08;81.80
5455;BME280;2750;49.050;9.250;2023-04-09T03:05:23;99468.97;;;10.13;82.07
5455;BME280;2750;49.050;9.250;2023-04-09T03:10:25;99464.63;;;10.15;81.02
5455;BME280;2750;49.050;9.250;2023-04-09T03:15:28;99466.72;;;10.02;81.98
5455;BME280;2750;49.050;9.250;2023-04-09T03:20:29;99467.38;;;9.82;82.62
5455;BME280;2750;49.050;9.250;2023-04-09T03:25:31;99471.91;;;9.76;83.19
5455;BME280;2750;49.050;9.250;2023-04-09T03:30:34;99469.59;;;9.67;83.08
5455;BME280;2750;49.050;9.250;2023-04-09T03:35:35;99459.81;;;9.76;83.28
5455;BME280;2750;49.050;9.250;2023-04-09T03:40:37;99465.66;;;9.81;81.77
5455;BME280;2750;49.050;9.250;2023-04-09T03:45:40;99468.97;;;9.86;82.23
5455;BME280;2750;49.050;9.250;2023-04-09T03:50:41;99464.72;;;10.10;81.96
5455;BME280;2750;49.050;9.250;2023-04-09T03:55:43;99465.00;;;10.02;82.40
5455;BME280;2750;49.050;9.250;2023-04-09T04:00:46;99466.97;;;9.94;82.16
5455;BME280;2750;49.050;9.250;2023-04-09T04:05:47;99466.75;;;10.00;82.63
5455;BME280;2750;49.050;9.250;2023-04-09T04:10:49;99461.00;;;9.92;82.37
5455;BME280;2750;49.050;9.250;2023-04-09T04:15:52;99460.09;;;9.93;82.51
5455;BME280;2750;49.050;9.250;2023-04-09T04:20:53;99469.63;;;9.93;82.26
5455;BME280;2750;49.050;9.250;2023-04-09T04:25:55;99476.00;;;9.83;82.22
5455;BME280;2750;49.050;9.250;2023-04-09T04:30:58;99477.47;;;9.91;82.51
5455;BME280;2750;49.050;9.250;2023-04-09T04:36:04;99474.16;;;9.86;82.22
5455;BME280;2750;49.050;9.250;2023-04-09T04:41:06;99484.25;;;9.95;81.84
5455;BME280;2750;49.050;9.250;2023-04-09T04:46:09;99486.63;;;9.75;81.66
5455;BME280;2750;49.050;9.250;2023-04-09T04:51:11;99486.00;;;9.93;81.54
5455;BME280;2750;49.050;9.250;2023-04-09T04:56:13;99487.84;;;10.18;81.69
5455;BME280;2750;49.050;9.250;2023-04-09T05:01:16;99491.03;;;10.26;82.14
5455;BME280;2750;49.050;9.250;2023-04-09T05:06:18;99489.28;;;10.26;81.41
5455;BME280;2750;49.050;9.250;2023-04-09T05:11:19;99480.25;;;10.38;81.21
5455;BME280;2750;49.050;9.250;2023-04-09T05:16:23;99484.63;;;10.36;81.98
5455;BME280;2750;49.050;9.250;2023-04-09T05:21:24;99486.22;;;10.40;81.91
5455;BME280;2750;49.050;9.250;2023-04-09T05:26:26;99491.41;;;10.65;81.14
5455;BME280;2750;49.050;9.250;2023-04-09T05:31:29;99486.22;;;10.40;82.13
5455;BME280;2750;49.050;9.250;2023-04-09T05:36:31;99490.59;;;10.87;80.56
5455;BME280;2750;49.050;9.250;2023-04-09T05:41:33;99491.25;;;11.16;80.70
5455;BME280;2750;49.050;9.250;2023-04-09T05:46:38;99498.38;;;11.34;80.11
5455;BME280;2750;49.050;9.250;2023-04-09T05:51:39;99486.41;;;11.51;79.32
5455;BME280;2750;49.050;9.250;2023-04-09T05:56:42;99498.38;;;11.34;79.08
5455;BME280;2750;49.050;9.250;2023-04-09T06:01:45;99494.06;;;12.00;78.51
5455;BME280;2750;49.050;9.250;2023-04-09T06:06:47;99495.13;;;12.36;77.43
5455;BME280;2750;49.050;9.250;2023-04-09T06:11:48;99505.00;;;12.28;77.08
5455;BME280;2750;49.050;9.250;2023-04-09T06:16:51;99508.19;;;11.92;78.85
5455;BME280;2750;49.050;9.250;2023-04-09T06:21:53;99492.13;;;12.45;77.37
5455;BME280;2750;49.050;9.250;2023-04-09T06:26:54;99496.09;;;13.13;75.76
5455;BME280;2750;49.050;9.250;2023-04-09T06:31:58;99490.84;;;13.69;74.67
5455;BME280;2750;49.050;9.250;2023-04-09T06:36:59;99479.78;;;14.68;71.85
5455;BME280;2750;49.050;9.250;2023-04-09T06:42:01;99479.69;;;15.03;69.39
5455;BME280;2750;49.050;9.250;2023-04-09T06:47:04;99499.84;;;14.68;70.29
5455;BME280;2750;49.050;9.250;2023-04-09T06:52:08;99495.75;;;14.11;71.09
5455;BME280;2750;49.050;9.250;2023-04-09T06:57:09;99496.22;;;14.19;71.81
5455;BME280;2750;49.050;9.250;2023-04-09T07:02:12;99487.88;;;14.29;71.23
5455;BME280;2750;49.050;9.250;2023-04-09T07:07:14;99491.69;;;14.57;69.48
5455;BME280;2750;49.050;9.250;2023-04-09T07:12:25;99497.53;;;14.79;68.87
5455;BME280;2750;49.050;9.250;2023-04-09T07:17:29;99496.50;;;15.30;67.78
5455;BME280;2750;49.050;9.250;2023-04-09T07:22:31;99507.56;;;17.15;63.05
5455;BME280;2750;49.050;9.250;2023-04-09T07:27:32;99504.66;;;18.41;59.16
5455;BME280;2750;49.050;9.250;2023-04-09T07:32:35;99518.16;;;15.81;65.24
5455;BME280;2750;49.050;9.250;2023-04-09T07:37:37;99502.72;;;18.18;61.58
5455;BME280;2750;49.050;9.250;2023-04-09T07:42:39;99512.59;;;17.33;61.69
5455;BME280;2750;49.050;9.250;2023-04-09T07:47:43;99507.34;;;17.33;62.38
5455;BME280;2750;49.050;9.250;2023-04-09T07:52:44;99509.03;;;15.41;64.23
5455;BME280;2750;49.050;9.250;2023-04-09T07:57:46;99508.41;;;15.20;65.99
5455;BME280;2750;49.050;9.250;2023-04-09T08:02:49;99512.19;;;15.78;65.27
5455;BME280;2750;49.050;9.250;2023-04-09T08:07:51;99509.97;;;16.62;62.64
5455;BME280;2750;49.050;9.250;2023-04-09T08:12:53;99512.69;;;16.75;62.13
5455;BME280;2750;49.050;9.250;2023-04-09T08:17:56;99509.47;;;17.40;60.53
5455;BME280;2750;49.050;9.250;2023-04-09T08:22:57;99512.72;;;16.89;60.75
5455;BME280;2750;49.050;9.250;2023-04-09T08:27:59;99509.34;;;17.84;59.16
5455;BME280;2750;49.050;9.250;2023-04-09T08:33:02;99512.28;;;20.07;55.99
5455;BME280;2750;49.050;9.250;2023-04-09T08:38:04;99511.44;;;20.07;54.49
5455;BME280;2750;49.050;9.250;2023-04-09T08:43:07;99510.78;;;22.06;49.11
5455;BME280;2750;49.050;9.250;2023-04-09T08:48:12;99502.44;;;23.05;47.36
5455;BME280;2750;49.050;9.250;2023-04-09T08:53:14;99492.22;;;23.61;45.06
5455;BME280;2750;49.050;9.250;2023-04-09T08:58:17;99496.84;;;22.98;46.75
5455;BME280;2750;49.050;9.250;2023-04-09T09:03:19;99508.09;;;22.91;47.17
5455;BME280;2750;49.050;9.250;2023-04-09T09:08:23;99499.84;;;21.12;47.45
5455;BME280;2750;49.050;9.250;2023-04-09T09:13:25;99508.84;;;21.32;47.58
5455;BME280;2750;49.050;9.250;2023-04-09T09:18:38;99505.31;;;20.76;48.77
5455;BME280;2750;49.050;9.250;2023-04-09T09:23:41;99509.03;;;21.73;47.28
5455;BME280;2750;49.050;9.250;2023-04-09T09:28:43;99508.50;;;22.33;47.00
5455;BME280;2750;49.050;9.250;2023-04-09T09:33:46;99508.56;;;20.33;48.42
5455;BME280;2750;49.050;9.250;2023-04-09T09:38:51;99506.19;;;20.41;47.90
5455;BME280;2750;49.050;9.250;2023-04-09T09:43:53;99505.53;;;20.50;48.93
5455;BME280;2750;49.050;9.250;2023-04-09T09:48:56;99510.25;;;20.34;49.89
5455;BME280;2750;49.050;9.250;2023-04-09T09:53:58;99509.69;;;20.18;47.71
5455;BME280;2750;49.050;9.250;2023-04-09T09:59:04;99500.31;;;19.67;46.72
5455;BME280;2750;49.050;9.250;2023-04-09T10:04:10;99495.03;;;19.18;47.77
5455;BME280;2750;49.050;9.250;2023-04-09T10:09:14;99492.53;;;18.91;47.78
5455;BME280;2750;49.050;9.250;2023-04-09T10:14:16;99500.75;;;19.61;46.33
5455;BME280;2750;49.050;9.250;2023-04-09T10:19:20;99496.44;;;19.60;46.10
5455;BME280;2750;49.050;9.250;2023-04-09T10:24:23;99495.91;;;19.91;45.74
5455;BME280;2750;49.050;9.250;2023-04-09T10:29:27;99490.53;;;19.92;47.30
5455;BME280;2750;49.050;9.250;2023-04-09T10:34:34;99480.28;;;20.35;45.53
5455;BME280;2750;49.050;9.250;2023-04-09T10:39:38;99477.72;;;19.39;46.90
5455;BME280;2750;49.050;9.250;2023-04-09T10:44:41;99487.06;;;19.55;46.41
5455;BME280;2750;49.050;9.250;2023-04-09T10:49:45;99482.72;;;20.38;46.99
5455;BME280;2750;49.050;9.250;2023-04-09T10:54:49;99477.38;;;18.94;46.73
5455;BME280;2750;49.050;9.250;2023-04-09T10:59:53;99477.47;;;18.68;47.15
5455;BME280;2750;49.050;9.250;2023-04-09T11:05:04;99472.44;;;18.52;46.74
5455;BME280;2750;49.050;9.250;2023-04-09T11:10:08;99474.66;;;18.19;48.21
5455;BME280;2750;49.050;9.250;2023-04-09T11:15:15;99481.06;;;18.67;48.00
5455;BME280;2750;49.050;9.250;2023-04-09T11:20:21;99467.13;;;17.60;48.92
5455;BME280;2750;49.050;9.250;2023-04-09T11:25:24;99458.97;;;18.04;48.70
5455;BME280;2750;49.050;9.250;2023-04-09T11:30:26;99454.25;;;17.70;49.72
5455;BME280;2750;49.050;9.250;2023-04-09T11:35:32;99450.09;;;17.25;50.36
5455;BME280;2750;49.050;9.250;2023-04-09T11:40:34;99454.16;;;16.16;51.01
5455;BME280;2750;49.050;9.250;2023-04-09T11:45:36;99460.06;;;17.20;50.19
5455;BME280;2750;49.050;9.250;2023-04-09T11:50:40;99452.94;;;17.08;49.73
5455;BME280;2750;49.050;9.250;2023-04-09T11:55:41;99441.19;;;18.60;48.57
5455;BME280;2750;49.050;9.250;2023-04-09T12:00:43;99452.03;;;18.81;47.70
5455;BME280;2750;49.050;9.250;2023-04-09T12:05:47;99435.97;;;19.82;46.29
5455;BME280;2750;49.050;9.250;2023-04-09T12:10:49;99442.00;;;20.65;46.15
5455;BME280;2750;49.050;9.250;2023-04-09T12:15:50;99444.78;;;21.73;44.36
5455;BME280;2750;49.050;9.250;2023-04-09T12:20:53;99441.50;;;20.71;44.18
5455;BME280;2750;49.050;9.250;2023-04-09T12:25:55;99443.63;;;21.98;44.26
5455;BME280;2750;49.050;9.250;2023-04-09T12:30:59;99447.28;;;21.31;44.82
5455;BME280;2750;49.050;9.250;2023-04-09T12:36:04;99441.84;;;21.98;44.98
5455;BME280;2750;49.050;9.250;2023-04-09T12:41:05;99435.03;;;21.41;45.11
5455;BME280;2750;49.050;9.250;2023-04-09T12:46:07;99426.16;;;20.54;45.63
5455;BME280;2750;49.050;9.250;2023-04-09T12:51:10;99431.19;;;20.45;46.12
5455;BME280;2750;49.050;9.250;2023-04-09T12:56:11;99415.88;;;20.84;45.79
5455;BME280;2750;49.050;9.250;2023-04-09T13:01:13;99410.31;;;21.74;46.67
5455;BME280;2750;49.050;9.250;2023-04-09T13:06:16;99402.25;;;21.44;47.87
5455;BME280;2750;49.050;9.250;2023-04-09T13:11:17;99394.19;;;22.09;44.74
5455;BME280;2750;49.050;9.250;2023-04-09T13:16:19;99395.00;;;22.51;44.76
5455;BME280;2750;49.050;9.250;2023-04-09T13:21:22;99386.56;;;22.36;43.70
5455;BME280;2750;49.050;9.250;2023-04-09T13:26:24;99385.69;;;22.06;45.04
5455;BME280;2750;49.050;9.250;2023-04-09T13:31:25;99391.03;;;22.15;45.42
5455;BME280;2750;49.050;9.250;2023-04-09T13:36:29;99378.03;;;22.54;44.80
5455;BME280;2750;49.050;9.250;2023-04-09T13:41:31;99369.66;;;22.49;43.88
5455;BME280;2750;49.050;9.250;2023-04-09T13:46:32;99371.53;;;22.88;44.06
5455;BME280;2750;49.050;9.250;2023-04-09T13:51:35;99360.47;;;24.28;42.70
5455;BME280;2750;49.050;9.250;2023-04-09T13:56:37;99354.16;;;24.76;41.83
5455;BME280;2750;49.050;9.250;2023-04-09T14:01:38;99340.47;;;24.71;42.04
5455;BME280;2750;49.050;9.250;2023-04-09T14:06:42;99346.81;;;25.60;41.68
5455;BME280;2750;49.050;9.250;2023-04-09T14:11:43;99346.63;;;26.74;40.90
5455;BME280;2750;49.050;9.250;2023-04-09T14:16:45;99329.66;;;27.17;39.88
5455;BME280;2750;49.050;9.250;2023-04-09T14:21:48;99327.31;;;27.30;39.83
5455;BME280;2750;49.050;9.250;2023-04-09T14:26:52;99327.16;;;27.24;40.35
5455;BME280;2750;49.050;9.250;2023-04-09T14:31:54;99319.06;;;26.24;40.15
5455;BME280;2750;49.050;9.250;2023-04-09T14:36:56;99327.78;;;26.76;40.76
5455;BME280;2750;49.050;9.250;2023-04-09T14:41:58;99322.13;;;26.37;40.65
5455;BME280;2750;49.050;9.250;2023-04-09T14:47:00;99323.50;;;25.54;41.06
5455;BME280;2750;49.050;9.250;2023-04-09T14:52:03;99333.19;;;23.61;41.60
5455;BME280;2750;49.050;9.250;2023-04-09T14:57:05;99324.47;;;23.11;42.21
5455;BME280;2750;49.050;9.250;2023-04-09T15:02:06;99331.28;;;24.28;42.24
5455;BME280;2750;49.050;9.250;2023-04-09T15:07:09;99320.75;;;24.73;40.91
5455;BME280;2750;49.050;9.250;2023-04-09T15:12:10;99304.72;;;25.99;39.52
5455;BME280;2750;49.050;9.250;2023-04-09T15:17:12;99304.59;;;27.10;38.45
5455;BME280;2750;49.050;9.250;2023-04-09T15:22:15;99319.34;;;24.42;40.68
5455;BME280;2750;49.050;9.250;2023-04-09T15:27:17;99328.44;;;24.40;41.16
5455;BME280;2750;49.050;9.250;2023-04-09T15:32:18;99307.69;;;25.70;39.29
5455;BME280;2750;49.050;9.250;2023-04-09T15:37:21;99305.41;;;25.40;40.42
5455;BME280;2750;49.050;9.250;2023-04-09T15:42:26;99303.22;;;25.96;40.03
5455;BME280;2750;49.050;9.250;2023-04-09T15:47:27;99302.19;;;25.18;40.96
5455;BME280;2750;49.050;9.250;2023-04-09T15:52:30;99309.09;;;24.30;41.85
5455;BME280;2750;49.050;9.250;2023-04-09T15:57:32;99306.69;;;24.36;41.76
5455;BME280;2750;49.050;9.250;2023-04-09T16:02:33;99300.59;;;24.16;40.95
5455;BME280;2750;49.050;9.250;2023-04-09T16:07:39;99301.78;;;24.32;41.78
5455;BME280;2750;49.050;9.250;2023-04-09T16:12:40;99305.31;;;24.13;41.99
5455;BME280;2750;49.050;9.250;2023-04-09T16:17:42;99304.47;;;24.59;41.32
5455;BME280;2750;49.050;9.250;2023-04-09T16:22:45;99314.22;;;24.41;41.35
5455;BME280;2750;49.050;9.250;2023-04-09T16:27:46;99309.75;;;24.41;41.45
5455;BME280;2750;49.050;9.250;2023-04-09T16:32:48;99314.63;;;23.80;40.96
5455;BME280;2750;49.050;9.250;2023-04-09T16:37:51;99315.25;;;24.11;41.59
5455;BME280;2750;49.050;9.250;2023-04-09T16:42:52;99301.31;;;23.90;41.53
5455;BME280;2750;49.050;9.250;2023-04-09T16:47:54;99300.56;;;22.82;42.52
5455;BME280;2750;49.050;9.250;2023-04-09T16:52:57;99304.91;;;21.92;43.45
5455;BME280;2750;49.050;9.250;2023-04-09T16:58:00;99299.31;;;22.16;43.06
5455;BME280;2750;49.050;9.250;2023-04-09T17:03:02;99306.41;;;22.76;42.07
5455;BME280;2750;49.050;9.250;2023-04-09T17:08:05;99311.22;;;22.31;42.96
5455;BME280;2750;49.050;9.250;2023-04-09T17:13:07;99311.53;;;20.80;44.91
5455;BME280;2750;49.050;9.250;2023-04-09T17:18:08;99311.75;;;20.10;46.05
5455;BME280;2750;49.050;9.250;2023-04-09T17:23:11;99323.56;;;19.93;46.95
5455;BME280;2750;49.050;9.250;2023-04-09T17:28:13;99323.63;;;19.70;47.02
5455;BME280;2750;49.050;9.250;2023-04-09T17:33:15;99321.25;;;18.83;48.01
5455;BME280;2750;49.050;9.250;2023-04-09T17:38:18;99332.56;;;18.34;48.98
5455;BME280;2750;49.050;9.250;2023-04-09T17:43:20;99330.16;;;18.19;49.48
5455;BME280;2750;49.050;9.250;2023-04-09T17:48:22;99331.25;;;17.37;50.60
5455;BME280;2750;49.050;9.250;2023-04-09T17:53:25;99338.09;;;16.72;52.15
5455;BME280;2750;49.050;9.250;2023-04-09T17:58:26;99352.22;;;16.27;53.22
5455;BME280;2750;49.050;9.250;2023-04-09T18:03:29;99359.94;;;15.86;54.11
5455;BME280;2750;49.050;9.250;2023-04-09T18:08:32;99360.44;;;15.47;54.60
5455;BME280;2750;49.050;9.250;2023-04-09T18:13:33;99365.88;;;15.28;55.14
5455;BME280;2750;49.050;9.250;2023-04-09T18:18:35;99367.56;;;14.98;55.24
5455;BME280;2750;49.050;9.250;2023-04-09T18:23:38;99367.88;;;14.76;55.64
5455;BME280;2750;49.050;9.250;2023-04-09T18:28:40;99375.06;;;14.89;55.37
5455;BME280;2750;49.050;9.250;2023-04-09T18:33:41;99388.94;;;14.73;55.77
5455;BME280;2750;49.050;9.250;2023-04-09T18:38:44;99398.25;;;14.95;55.88
5455;BME280;2750;49.050;9.250;2023-04-09T18:43:46;99414.00;;;14.77;55.46
5455;BME280;2750;49.050;9.250;2023-04-09T18:48:48;99413.25;;;14.75;56.04
5455;BME280;2750;49.050;9.250;2023-04-09T18:53:51;99413.66;;;14.51;56.16
5455;BME280;2750;49.050;9.250;2023-04-09T18:58:54;99416.31;;;14.16;56.80
5455;BME280;2750;49.050;9.250;2023-04-09T19:03:55;99420.97;;;13.93;57.69
5455;BME280;2750;49.050;9.250;2023-04-09T19:08:58;99422.28;;;13.84;58.05
5455;BME280;2750;49.050;9.250;2023-04-09T19:14:00;99427.59;;;13.82;58.93
5455;BME280;2750;49.050;9.250;2023-04-09T19:19:02;99425.41;;;13.56;60.02
5455;BME280;2750;49.050;9.250;2023-04-09T19:24:05;99432.84;;;13.28;60.80
5455;BME280;2750;49.050;9.250;2023-04-09T19:29:07;99438.06;;;13.28;60.40
5455;BME280;2750;49.050;9.250;2023-04-09T19:34:08;99442.81;;;13.00;60.50
5455;BME280;2750;49.050;9.250;2023-04-09T19:39:11;99441.19;;;12.97;60.86
5455;BME280;2750;49.050;9.250;2023-04-09T19:44:14;99437.59;;;13.00;60.71
5455;BME280;2750;49.050;9.250;2023-04-09T19:49:16;99445.16;;;13.06;60.77
5455;BME280;2750;49.050;9.250;2023-04-09T19:54:18;99459.56;;;12.94;62.04
5455;BME280;2750;49.050;9.250;2023-04-09T19:59:20;99461.34;;;12.93;62.80
5455;BME280;2750;49.050;9.250;2023-04-09T20:04:22;99456.78;;;12.39;63.78
5455;BME280;2750;49.050;9.250;2023-04-09T20:09:25;99454.72;;;12.27;64.13
5455;BME280;2750;49.050;9.250;2023-04-09T20:14:28;99456.25;;;12.11;64.99
5455;BME280;2750;49.050;9.250;2023-04-09T20:19:30;99447.59;;;11.90;65.19
5455;BME280;2750;49.050;9.250;2023-04-09T20:24:33;99444.16;;;11.68;66.19
5455;BME280;2750;49.050;9.250;2023-04-09T20:29:34;99446.03;;;11.43;67.04
5455;BME280;2750;49.050;9.250;2023-04-09T20:34:36;99452.53;;;11.31;67.63
5455;BME280;2750;49.050;9.250;2023-04-09T20:39:39;99461.31;;;11.29;67.98
5455;BME280;2750;49.050;9.250;2023-04-09T20:44:40;99467.94;;;10.91;69.51
5455;BME280;2750;49.050;9.250;2023-04-09T20:49:42;99463.72;;;10.88;69.57
5455;BME280;2750;49.050;9.250;2023-04-09T20:54:47;99466.78;;;10.99;68.74
5455;BME280;2750;49.050;9.250;2023-04-09T20:59:48;99463.66;;;10.42;71.22
5455;BME280;2750;49.050;9.250;2023-04-09T21:04:50;99453.91;;;10.48;70.51
5455;BME280;2750;49.050;9.250;2023-04-09T21:09:53;99454.44;;;10.58;70.92
5455;BME280;2750;49.050;9.250;2023-04-09T21:14:54;99443.13;;;10.36;71.43
5455;BME280;2750;49.050;9.250;2023-04-09T21:19:57;99445.66;;;9.86;72.54
5455;BME280;2750;49.050;9.250;2023-04-09T21:25:00;99457.25;;;9.75;73.59
5455;BME280;2750;49.050;9.250;2023-04-09T21:30:02;99444.06;;;9.82;73.60
5455;BME280;2750;49.050;9.250;2023-04-09T21:35:05;99443.56;;;9.71;73.63
5455;BME280;2750;49.050;9.250;2023-04-09T21:40:10;99439.00;;;9.78;74.16
5455;BME280;2750;49.050;9.250;2023-04-09T21:45:12;99440.56;;;9.29;73.83
5455;BME280;2750;49.050;9.250;2023-04-09T21:50:14;99437.78;;;9.35;75.13
5455;BME280;2750;49.050;9.250;2023-04-09T21:55:17;99440.38;;;9.35;74.94
5455;BME280;2750;49.050;9.250;2023-04-09T22:00:18;99441.44;;;9.30;74.95
5455;BME280;2750;49.050;9.250;2023-04-09T22:05:20;99437.34;;;9.23;75.00
5455;BME280;2750;49.050;9.250;2023-04-09T22:10:25;99441.16;;;9.11;76.16
5455;BME280;2750;49.050;9.250;2023-04-09T22:15:27;99434.75;;;9.23;75.76
5455;BME280;2750;49.050;9.250;2023-04-09T22:20:28;99435.53;;;9.25;75.25
5455;BME280;2750;49.050;9.250;2023-04-09T22:25:31;99447.97;;;9.13;75.39
5455;BME280;2750;49.050;9.250;2023-04-09T22:30:34;99443.88;;;9.06;75.31
5455;BME280;2750;49.050;9.250;2023-04-09T22:35:35;99442.56;;;9.21;75.37
5455;BME280;2750;49.050;9.250;2023-04-09T22:40:38;99434.28;;;9.08;74.84
5455;BME280;2750;49.050;9.250;2023-04-09T22:45:40;99432.16;;;8.93;76.21
5455;BME280;2750;49.050;9.250;2023-04-09T22:50:41;99428.19;;;8.82;76.43
5455;BME280;2750;49.050;9.250;2023-04-09T22:55:46;99428.28;;;8.79;76.96
5455;BME280;2750;49.050;9.250;2023-04-09T23:00:49;99426.38;;;9.15;75.67
5455;BME280;2750;49.050;9.250;2023-04-09T23:05:51;99432.72;;;9.04;75.53
5455;BME280;2750;49.050;9.250;2023-04-09T23:10:56;99420.41;;;8.83;76.49
5455;BME280;2750;49.050;9.250;2023-04-09T23:15:57;99439.38;;;8.84;77.01
5455;BME280;2750;49.050;9.250;2023-04-09T23:21:02;99437.88;;;8.75;77.49
5455;BME280;2750;49.050;9.250;2023-04-09T23:26:05;99428.06;;;8.57;77.74
5455;BME280;2750;49.050;9.250;2023-04-09T23:31:07;99436.06;;;8.48;78.10
5455;BME280;2750;49.050;9.250;2023-04-09T23:36:08;99428.31;;;8.48;77.25
5455;BME280;2750;49.050;9.250;2023-04-09T23:41:12;99429.69;;;8.29;78.48
5455;BME280;2750;49.050;9.250;2023-04-09T23:46:14;99432.44;;;8.21;77.87
5455;BME280;2750;49.050;9.250;2023-04-09T23:51:16;99431.88;;;8.44;78.38
5455;BME280;2750;49.050;9.250;2023-04-09T23:56:19;99426.13;;;8.63;77.69
